Apache Acres, Indiana
Current Conditions -  °F | °C
As of 10:53 AM on Saturday 25 Oct 2014 (Local Time) from KHUF Reporting Station
Clear Clear  
Wind Chill: 62°   Ceiling: Unl
Heat Index: 62°   Visibility: 10mi
Dew Point: 55°   Wind: 5mph
Humidity: 78%   Direction: 330°NNW
Pressure: 30"   Gusts: NA
Location:  39.543°N, 87.3153°W
Report Text: KHUF 251453Z 33004KT 10SM CLR 17/13 A3000 RMK AO2 SLP159 T01670128 51006
Loading
Personal Weather Stations






























Interactive Weather Map New forecast layout! Learn more

10-Day Weather Forecast

Advertisements
Track Severe Weather on mobile